sensor_id;sensor_type;location;lat;lon;timestamp;temperature;humidity
48575;DHT22;34352;51.084;3.712;2023-10-08T07:35:27;17.30;7.00
48575;DHT22;34352;51.084;3.712;2023-10-08T07:38:14;17.60;1.00
48575;DHT22;34352;51.084;3.712;2023-10-08T07:40:50;17.70;1.00
48575;DHT22;34352;51.084;3.712;2023-10-08T07:43:20;17.80;1.00
48575;DHT22;34352;51.084;3.712;2023-10-08T07:45:53;17.90;1.00
48575;DHT22;34352;51.084;3.712;2023-10-08T07:48:25;17.90;1.00
48575;DHT22;34352;51.084;3.712;2023-10-08T07:50:56;18.00;1.00
48575;DHT22;34352;51.084;3.712;2023-10-08T07:53:23;18.00;1.00
48575;DHT22;34352;51.084;3.712;2023-10-08T07:55:54;18.30;1.00
48575;DHT22;34352;51.084;3.712;2023-10-08T08:01:17;19.90;1.00
48575;DHT22;34352;51.084;3.712;2023-10-08T08:03:50;21.00;1.00
48575;DHT22;34352;51.084;3.712;2023-10-08T08:06:25;21.80;1.00
48575;DHT22;34352;51.084;3.712;2023-10-08T08:12:23;23.20;1.00
48575;DHT22;34352;51.084;3.712;2023-10-08T08:18:31;24.40;99.90
48575;DHT22;34352;51.084;3.712;2023-10-08T08:21:01;24.90;99.90
48575;DHT22;34352;51.084;3.712;2023-10-08T08:23:31;24.90;99.90
48575;DHT22;34352;51.084;3.712;2023-10-08T08:26:08;25.20;99.90
48575;DHT22;34352;51.084;3.712;2023-10-08T08:28:46;25.60;99.90
48575;DHT22;34352;51.084;3.712;2023-10-08T08:31:29;26.30;99.90
48575;DHT22;34352;51.084;3.712;2023-10-08T08:34:03;27.00;99.90
48575;DHT22;34352;51.084;3.712;2023-10-08T08:36:37;27.40;99.90
48575;DHT22;34352;51.084;3.712;2023-10-08T08:39:31;27.80;99.90
48575;DHT22;34352;51.084;3.712;2023-10-08T08:42:06;28.00;99.90
48575;DHT22;34352;51.084;3.712;2023-10-08T08:47:42;27.50;99.90
48575;DHT22;34352;51.084;3.712;2023-10-08T08:50:09;27.70;99.90
48575;DHT22;34352;51.084;3.712;2023-10-08T08:52:39;27.60;99.90
48575;DHT22;34352;51.084;3.712;2023-10-08T08:55:06;27.40;99.90
48575;DHT22;34352;51.084;3.712;2023-10-08T08:57:49;27.10;99.90
48575;DHT22;34352;51.084;3.712;2023-10-08T09:00:31;27.20;99.90
48575;DHT22;34352;51.084;3.712;2023-10-08T09:03:04;27.30;99.90
48575;DHT22;34352;51.084;3.712;2023-10-08T09:05:55;26.90;99.90
48575;DHT22;34352;51.084;3.712;2023-10-08T09:08:22;26.30;99.90
48575;DHT22;34352;51.084;3.712;2023-10-08T09:13:47;26.00;99.90
48575;DHT22;34352;51.084;3.712;2023-10-08T09:16:17;26.90;99.90
48575;DHT22;34352;51.084;3.712;2023-10-08T09:19:24;27.60;99.90
48575;DHT22;34352;51.084;3.712;2023-10-08T09:22:10;28.00;99.90
48575;DHT22;34352;51.084;3.712;2023-10-08T09:24:49;28.20;99.90
48575;DHT22;34352;51.084;3.712;2023-10-08T09:27:19;28.20;99.90
48575;DHT22;34352;51.084;3.712;2023-10-08T09:29:46;28.10;99.90
48575;DHT22;34352;51.084;3.712;2023-10-08T09:32:31;28.10;99.90
48575;DHT22;34352;51.084;3.712;2023-10-08T09:35:06;28.10;99.90
48575;DHT22;34352;51.084;3.712;2023-10-08T09:37:33;28.90;99.90
48575;DHT22;34352;51.084;3.712;2023-10-08T09:40:05;29.40;99.90
48575;DHT22;34352;51.084;3.712;2023-10-08T09:42:37;29.60;99.90
48575;DHT22;34352;51.084;3.712;2023-10-08T09:45:04;29.30;99.90
48575;DHT22;34352;51.084;3.712;2023-10-08T09:50:55;29.50;99.90
48575;DHT22;34352;51.084;3.712;2023-10-08T09:53:35;29.60;99.90
48575;DHT22;34352;51.084;3.712;2023-10-08T09:56:19;29.90;99.90
48575;DHT22;34352;51.084;3.712;2023-10-08T09:58:55;30.30;99.90
48575;DHT22;34352;51.084;3.712;2023-10-08T10:01:30;31.10;99.90
48575;DHT22;34352;51.084;3.712;2023-10-08T10:04:08;31.90;99.90
48575;DHT22;34352;51.084;3.712;2023-10-08T10:07:10;32.10;99.90
48575;DHT22;34352;51.084;3.712;2023-10-08T10:09:51;31.90;99.90
48575;DHT22;34352;51.084;3.712;2023-10-08T10:12:42;31.20;99.90
48575;DHT22;34352;51.084;3.712;2023-10-08T10:15:22;31.10;99.90
48575;DHT22;34352;51.084;3.712;2023-10-08T10:17:48;31.40;99.90
48575;DHT22;34352;51.084;3.712;2023-10-08T10:20:31;31.60;99.90
48575;DHT22;34352;51.084;3.712;2023-10-08T10:26:38;32.40;99.90
48575;DHT22;34352;51.084;3.712;2023-10-08T10:29:20;32.10;99.90
48575;DHT22;34352;51.084;3.712;2023-10-08T10:32:01;31.80;99.90
48575;DHT22;34352;51.084;3.712;2023-10-08T10:34:39;31.40;99.90
48575;DHT22;34352;51.084;3.712;2023-10-08T10:37:08;31.30;99.90
48575;DHT22;34352;51.084;3.712;2023-10-08T10:43:28;32.00;99.90
48575;DHT22;34352;51.084;3.712;2023-10-08T10:46:05;33.10;99.90
48575;DHT22;34352;51.084;3.712;2023-10-08T10:48:53;33.60;99.90
48575;DHT22;34352;51.084;3.712;2023-10-08T10:52:01;33.50;99.90
48575;DHT22;34352;51.084;3.712;2023-10-08T10:54:36;33.00;99.90
48575;DHT22;34352;51.084;3.712;2023-10-08T11:00:12;33.30;99.90
48575;DHT22;34352;51.084;3.712;2023-10-08T11:03:01;31.70;99.90
48575;DHT22;34352;51.084;3.712;2023-10-08T11:06:01;31.10;99.90
48575;DHT22;34352;51.084;3.712;2023-10-08T11:08:44;30.60;99.90
48575;DHT22;34352;51.084;3.712;2023-10-08T11:11:17;31.20;99.90
48575;DHT22;34352;51.084;3.712;2023-10-08T11:16:42;31.10;99.90
48575;DHT22;34352;51.084;3.712;2023-10-08T11:19:09;31.40;99.90
48575;DHT22;34352;51.084;3.712;2023-10-08T11:22:06;31.80;99.90
48575;DHT22;34352;51.084;3.712;2023-10-08T11:24:33;32.00;99.90
48575;DHT22;34352;51.084;3.712;2023-10-08T11:27:16;32.00;99.90
48575;DHT22;34352;51.084;3.712;2023-10-08T11:29:49;31.80;99.90
48575;DHT22;34352;51.084;3.712;2023-10-08T11:32:28;31.50;99.90
48575;DHT22;34352;51.084;3.712;2023-10-08T11:38:18;30.80;99.90
48575;DHT22;34352;51.084;3.712;2023-10-08T11:40:47;30.90;99.90
48575;DHT22;34352;51.084;3.712;2023-10-08T11:43:23;31.10;99.90
48575;DHT22;34352;51.084;3.712;2023-10-08T11:46:24;31.40;99.90
48575;DHT22;34352;51.084;3.712;2023-10-08T11:52:15;32.20;99.90
48575;DHT22;34352;51.084;3.712;2023-10-08T11:54:46;32.10;99.90
48575;DHT22;34352;51.084;3.712;2023-10-08T11:57:28;32.10;99.90
48575;DHT22;34352;51.084;3.712;2023-10-08T12:00:02;32.20;99.90
48575;DHT22;34352;51.084;3.712;2023-10-08T12:02:47;32.30;99.90
48575;DHT22;34352;51.084;3.712;2023-10-08T12:05:30;31.80;99.90
48575;DHT22;34352;51.084;3.712;2023-10-08T12:08:10;31.20;99.90
48575;DHT22;34352;51.084;3.712;2023-10-08T12:14:12;31.70;99.90
48575;DHT22;34352;51.084;3.712;2023-10-08T12:16:40;31.90;99.90
48575;DHT22;34352;51.084;3.712;2023-10-08T12:19:24;31.60;99.90
48575;DHT22;34352;51.084;3.712;2023-10-08T12:22:00;31.50;99.90
48575;DHT22;34352;51.084;3.712;2023-10-08T12:24:29;31.40;99.90
48575;DHT22;34352;51.084;3.712;2023-10-08T12:30:19;31.70;99.90
48575;DHT22;34352;51.084;3.712;2023-10-08T12:39:34;32.40;99.90
48575;DHT22;34352;51.084;3.712;2023-10-08T12:42:14;32.60;99.90
48575;DHT22;34352;51.084;3.712;2023-10-08T12:44:56;32.70;99.90
48575;DHT22;34352;51.084;3.712;2023-10-08T12:47:23;32.70;99.90
48575;DHT22;34352;51.084;3.712;2023-10-08T12:50:06;32.40;99.90
48575;DHT22;34352;51.084;3.712;2023-10-08T12:52:51;32.40;99.90
48575;DHT22;34352;51.084;3.712;2023-10-08T12:55:27;32.30;99.90
48575;DHT22;34352;51.084;3.712;2023-10-08T12:57:57;32.10;99.90
48575;DHT22;34352;51.084;3.712;2023-10-08T13:00:36;31.60;99.90
48575;DHT22;34352;51.084;3.712;2023-10-08T13:06:28;31.70;99.90
48575;DHT22;34352;51.084;3.712;2023-10-08T13:09:16;31.90;99.90
48575;DHT22;34352;51.084;3.712;2023-10-08T13:11:58;31.50;99.90
48575;DHT22;34352;51.084;3.712;2023-10-08T13:14:39;31.60;99.90
48575;DHT22;34352;51.084;3.712;2023-10-08T13:17:21;31.90;99.90
48575;DHT22;34352;51.084;3.712;2023-10-08T13:20:07;31.70;99.90
48575;DHT22;34352;51.084;3.712;2023-10-08T13:22:39;31.00;99.90
48575;DHT22;34352;51.084;3.712;2023-10-08T13:25:05;30.60;99.90
48575;DHT22;34352;51.084;3.712;2023-10-08T13:27:32;30.80;99.90
48575;DHT22;34352;51.084;3.712;2023-10-08T13:33:00;30.80;99.90
48575;DHT22;34352;51.084;3.712;2023-10-08T13:35:34;30.70;99.90
48575;DHT22;34352;51.084;3.712;2023-10-08T13:38:34;30.40;99.90
48575;DHT22;34352;51.084;3.712;2023-10-08T13:41:17;30.70;99.90
48575;DHT22;34352;51.084;3.712;2023-10-08T13:44:18;30.80;99.90
48575;DHT22;34352;51.084;3.712;2023-10-08T13:46:53;30.80;99.90
48575;DHT22;34352;51.084;3.712;2023-10-08T13:49:52;30.70;99.90
48575;DHT22;34352;51.084;3.712;2023-10-08T13:58:48;29.80;99.90
48575;DHT22;34352;51.084;3.712;2023-10-08T14:01:31;29.30;99.90
48575;DHT22;34352;51.084;3.712;2023-10-08T14:04:06;29.10;99.90
48575;DHT22;34352;51.084;3.712;2023-10-08T14:06:46;28.90;99.90
48575;DHT22;34352;51.084;3.712;2023-10-08T14:15:32;29.00;99.90
48575;DHT22;34352;51.084;3.712;2023-10-08T14:18:03;29.40;99.90
48575;DHT22;34352;51.084;3.712;2023-10-08T14:20:55;29.30;99.90
48575;DHT22;34352;51.084;3.712;2023-10-08T14:23:28;29.20;99.90
48575;DHT22;34352;51.084;3.712;2023-10-08T14:25:54;29.00;99.90
48575;DHT22;34352;51.084;3.712;2023-10-08T14:31:41;28.80;99.90
48575;DHT22;34352;51.084;3.712;2023-10-08T14:34:41;28.80;99.90
48575;DHT22;34352;51.084;3.712;2023-10-08T14:37:29;28.60;99.90
48575;DHT22;34352;51.084;3.712;2023-10-08T14:40:13;28.50;99.90
48575;DHT22;34352;51.084;3.712;2023-10-08T14:43:28;28.40;99.90
48575;DHT22;34352;51.084;3.712;2023-10-08T14:49:20;28.50;99.90
48575;DHT22;34352;51.084;3.712;2023-10-08T14:51:52;28.20;99.90
48575;DHT22;34352;51.084;3.712;2023-10-08T14:57:17;28.10;99.90
48575;DHT22;34352;51.084;3.712;2023-10-08T14:59:47;28.20;99.90
48575;DHT22;34352;51.084;3.712;2023-10-08T15:02:26;28.00;99.90
48575;DHT22;34352;51.084;3.712;2023-10-08T15:04:57;27.90;99.90
48575;DHT22;34352;51.084;3.712;2023-10-08T15:07:25;27.60;99.90
48575;DHT22;34352;51.084;3.712;2023-10-08T15:10:04;27.20;99.90
48575;DHT22;34352;51.084;3.712;2023-10-08T15:12:31;27.30;99.90
48575;DHT22;34352;51.084;3.712;2023-10-08T15:15:11;27.30;99.90
48575;DHT22;34352;51.084;3.712;2023-10-08T15:17:45;27.30;99.90
48575;DHT22;34352;51.084;3.712;2023-10-08T15:23:23;26.60;99.90
48575;DHT22;34352;51.084;3.712;2023-10-08T15:25:53;26.10;99.90
48575;DHT22;34352;51.084;3.712;2023-10-08T15:28:25;26.00;99.90
48575;DHT22;34352;51.084;3.712;2023-10-08T15:30:54;26.10;99.90
48575;DHT22;34352;51.084;3.712;2023-10-08T15:33:21;26.00;99.90
48575;DHT22;34352;51.084;3.712;2023-10-08T15:39:18;25.80;99.90
48575;DHT22;34352;51.084;3.712;2023-10-08T15:42:08;25.60;99.90
48575;DHT22;34352;51.084;3.712;2023-10-08T15:51:29;25.30;99.90
48575;DHT22;34352;51.084;3.712;2023-10-08T15:53:59;25.30;99.90
48575;DHT22;34352;51.084;3.712;2023-10-08T15:56:47;25.30;99.90
48575;DHT22;34352;51.084;3.712;2023-10-08T15:59:20;25.20;99.90
48575;DHT22;34352;51.084;3.712;2023-10-08T16:02:09;25.10;99.90
48575;DHT22;34352;51.084;3.712;2023-10-08T16:04:59;25.10;99.90
48575;DHT22;34352;51.084;3.712;2023-10-08T16:07:29;25.10;99.90
48575;DHT22;34352;51.084;3.712;2023-10-08T16:09:59;25.10;99.90
48575;DHT22;34352;51.084;3.712;2023-10-08T16:12:25;25.10;99.90
48575;DHT22;34352;51.084;3.712;2023-10-08T16:14:55;25.10;99.90
48575;DHT22;34352;51.084;3.712;2023-10-08T16:17:20;25.00;99.90
48575;DHT22;34352;51.084;3.712;2023-10-08T16:19:58;24.90;99.90
48575;DHT22;34352;51.084;3.712;2023-10-08T16:22:31;24.90;99.90
48575;DHT22;34352;51.084;3.712;2023-10-08T16:25:00;24.70;99.90
48575;DHT22;34352;51.084;3.712;2023-10-08T16:27:33;24.70;99.90
48575;DHT22;34352;51.084;3.712;2023-10-08T16:30:04;24.50;99.90
48575;DHT22;34352;51.084;3.712;2023-10-08T16:32:30;24.50;99.90
48575;DHT22;34352;51.084;3.712;2023-10-08T16:34:56;24.50;99.90
48575;DHT22;34352;51.084;3.712;2023-10-08T16:37:24;24.40;99.90
48575;DHT22;34352;51.084;3.712;2023-10-08T16:40:24;24.30;99.90
48575;DHT22;34352;51.084;3.712;2023-10-08T16:43:04;24.20;99.90
48575;DHT22;34352;51.084;3.712;2023-10-08T16:46:01;24.20;99.90
48575;DHT22;34352;51.084;3.712;2023-10-08T16:48:59;24.10;1.00
48575;DHT22;34352;51.084;3.712;2023-10-08T16:51:31;24.00;1.00
48575;DHT22;34352;51.084;3.712;2023-10-08T16:54:06;23.90;1.00
48575;DHT22;34352;51.084;3.712;2023-10-08T16:56:57;23.90;1.00
48575;DHT22;34352;51.084;3.712;2023-10-08T16:59:35;23.70;1.00
48575;DHT22;34352;51.084;3.712;2023-10-08T17:02:11;23.60;1.00
48575;DHT22;34352;51.084;3.712;2023-10-08T17:04:43;23.50;1.00
48575;DHT22;34352;51.084;3.712;2023-10-08T17:07:31;23.30;1.00
48575;DHT22;34352;51.084;3.712;2023-10-08T17:10:02;23.30;1.00
48575;DHT22;34352;51.084;3.712;2023-10-08T17:12:57;23.20;1.00
48575;DHT22;34352;51.084;3.712;2023-10-08T17:15:48;23.00;1.00
48575;DHT22;34352;51.084;3.712;2023-10-08T17:18:14;22.90;1.00
48575;DHT22;34352;51.084;3.712;2023-10-08T17:23:37;22.70;1.00
48575;DHT22;34352;51.084;3.712;2023-10-08T17:26:15;22.50;1.00
48575;DHT22;34352;51.084;3.712;2023-10-08T17:29:05;22.40;1.00
48575;DHT22;34352;51.084;3.712;2023-10-08T17:31:38;22.20;1.00
48575;DHT22;34352;51.084;3.712;2023-10-08T17:34:32;22.10;1.00
48575;DHT22;34352;51.084;3.712;2023-10-08T17:37:02;22.10;1.00
48575;DHT22;34352;51.084;3.712;2023-10-08T17:39:33;21.90;1.00
48575;DHT22;34352;51.084;3.712;2023-10-08T17:42:25;21.80;1.00
48575;DHT22;34352;51.084;3.712;2023-10-08T17:45:04;21.70;1.00
48575;DHT22;34352;51.084;3.712;2023-10-08T17:47:59;21.60;1.00
48575;DHT22;34352;51.084;3.712;2023-10-08T17:50:28;21.60;1.00
48575;DHT22;34352;51.084;3.712;2023-10-08T17:53:14;21.40;1.00
48575;DHT22;34352;51.084;3.712;2023-10-08T17:55:47;21.50;1.00
48575;DHT22;34352;51.084;3.712;2023-10-08T17:58:20;21.30;1.00
48575;DHT22;34352;51.084;3.712;2023-10-08T18:00:56;21.30;1.00
48575;DHT22;34352;51.084;3.712;2023-10-08T18:03:29;21.30;1.00
48575;DHT22;34352;51.084;3.712;2023-10-08T18:06:02;21.30;1.00
48575;DHT22;34352;51.084;3.712;2023-10-08T18:08:29;21.20;1.00
48575;DHT22;34352;51.084;3.712;2023-10-08T18:11:12;21.20;1.00
48575;DHT22;34352;51.084;3.712;2023-10-08T18:13:43;21.20;1.00
48575;DHT22;34352;51.084;3.712;2023-10-08T18:16:13;21.10;1.00
48575;DHT22;34352;51.084;3.712;2023-10-08T18:18:42;21.10;1.00
48575;DHT22;34352;51.084;3.712;2023-10-08T18:21:12;21.10;1.00
48575;DHT22;34352;51.084;3.712;2023-10-08T18:23:45;21.10;1.00
48575;DHT22;34352;51.084;3.712;2023-10-08T18:26:14;21.10;1.00
48575;DHT22;34352;51.084;3.712;2023-10-08T18:28:45;21.10;1.00
48575;DHT22;34352;51.084;3.712;2023-10-08T18:31:11;21.00;1.00
48575;DHT22;34352;51.084;3.712;2023-10-08T18:33:46;20.90;1.00
48575;DHT22;34352;51.084;3.712;2023-10-08T18:36:18;20.90;1.00
48575;DHT22;34352;51.084;3.712;2023-10-08T18:38:45;20.70;1.00
48575;DHT22;34352;51.084;3.712;2023-10-08T18:41:45;20.70;1.00
48575;DHT22;34352;51.084;3.712;2023-10-08T18:44:34;20.70;1.00
48575;DHT22;34352;51.084;3.712;2023-10-08T18:47:01;20.60;1.00
48575;DHT22;34352;51.084;3.712;2023-10-08T18:52:59;20.50;1.00
48575;DHT22;34352;51.084;3.712;2023-10-08T18:55:27;20.50;1.00
48575;DHT22;34352;51.084;3.712;2023-10-08T18:57:58;20.40;1.00
48575;DHT22;34352;51.084;3.712;2023-10-08T19:00:49;20.40;1.00
48575;DHT22;34352;51.084;3.712;2023-10-08T19:03:24;20.30;1.00
48575;DHT22;34352;51.084;3.712;2023-10-08T19:06:00;20.20;1.00
48575;DHT22;34352;51.084;3.712;2023-10-08T19:11:42;20.10;11.80
48575;DHT22;34352;51.084;3.712;2023-10-08T19:14:19;19.90;15.70
48575;DHT22;34352;51.084;3.712;2023-10-08T19:16:44;19.80;19.50
48575;DHT22;34352;51.084;3.712;2023-10-08T19:19:17;19.70;19.80
48575;DHT22;34352;51.084;3.712;2023-10-08T19:21:44;19.60;19.60
48575;DHT22;34352;51.084;3.712;2023-10-08T19:24:10;19.50;23.10
48575;DHT22;34352;51.084;3.712;2023-10-08T19:30:34;19.30;25.90
48575;DHT22;34352;51.084;3.712;2023-10-08T19:33:18;19.20;29.40
48575;DHT22;34352;51.084;3.712;2023-10-08T19:39:06;19.00;36.70
48575;DHT22;34352;51.084;3.712;2023-10-08T19:42:06;19.00;39.10
48575;DHT22;34352;51.084;3.712;2023-10-08T19:44:41;18.90;39.60
48575;DHT22;34352;51.084;3.712;2023-10-08T19:50:47;18.70;41.40
48575;DHT22;34352;51.084;3.712;2023-10-08T19:53:20;18.60;43.00
48575;DHT22;34352;51.084;3.712;2023-10-08T19:55:47;18.50;44.60
48575;DHT22;34352;51.084;3.712;2023-10-08T19:58:33;18.40;47.40
48575;DHT22;34352;51.084;3.712;2023-10-08T20:01:14;18.30;47.80
48575;DHT22;34352;51.084;3.712;2023-10-08T20:03:40;18.30;47.40
48575;DHT22;34352;51.084;3.712;2023-10-08T20:06:11;18.20;49.60
48575;DHT22;34352;51.084;3.712;2023-10-08T20:08:54;18.10;50.00
48575;DHT22;34352;51.084;3.712;2023-10-08T20:11:20;18.00;49.90
48575;DHT22;34352;51.084;3.712;2023-10-08T20:13:59;17.90;51.70
48575;DHT22;34352;51.084;3.712;2023-10-08T20:16:26;17.90;53.20
48575;DHT22;34352;51.084;3.712;2023-10-08T20:18:55;17.90;54.10
48575;DHT22;34352;51.084;3.712;2023-10-08T20:21:23;17.80;55.60
48575;DHT22;34352;51.084;3.712;2023-10-08T20:24:22;17.70;56.70
48575;DHT22;34352;51.084;3.712;2023-10-08T20:30:18;17.50;61.20
48575;DHT22;34352;51.084;3.712;2023-10-08T20:33:00;17.50;60.90
48575;DHT22;34352;51.084;3.712;2023-10-08T20:36:00;17.60;59.20
48575;DHT22;34352;51.084;3.712;2023-10-08T20:38:34;17.50;59.70
48575;DHT22;34352;51.084;3.712;2023-10-08T20:41:33;17.50;60.60
48575;DHT22;34352;51.084;3.712;2023-10-08T20:44:02;17.40;63.10
48575;DHT22;34352;51.084;3.712;2023-10-08T20:46:33;17.30;62.00
48575;DHT22;34352;51.084;3.712;2023-10-08T20:49:16;17.20;62.70
48575;DHT22;34352;51.084;3.712;2023-10-08T20:55:13;17.20;65.40
48575;DHT22;34352;51.084;3.712;2023-10-08T20:57:43;17.20;64.70
48575;DHT22;34352;51.084;3.712;2023-10-08T21:00:27;17.20;63.60
48575;DHT22;34352;51.084;3.712;2023-10-08T21:06:48;17.10;62.10
48575;DHT22;34352;51.084;3.712;2023-10-08T21:09:48;17.00;62.30
48575;DHT22;34352;51.084;3.712;2023-10-08T21:15:51;17.00;63.10
48575;DHT22;34352;51.084;3.712;2023-10-08T21:18:19;16.90;63.40
48575;DHT22;34352;51.084;3.712;2023-10-08T21:21:00;16.90;63.80
48575;DHT22;34352;51.084;3.712;2023-10-08T21:23:28;16.80;64.10
48575;DHT22;34352;51.084;3.712;2023-10-08T21:29:21;16.90;63.30
48575;DHT22;34352;51.084;3.712;2023-10-08T21:32:09;16.90;60.40
48575;DHT22;34352;51.084;3.712;2023-10-08T21:34:36;16.90;58.80
48575;DHT22;34352;51.084;3.712;2023-10-08T21:40:41;16.90;57.00
48575;DHT22;34352;51.084;3.712;2023-10-08T21:43:08;16.80;58.70
48575;DHT22;34352;51.084;3.712;2023-10-08T21:45:46;16.80;60.70
48575;DHT22;34352;51.084;3.712;2023-10-08T21:48:12;16.80;59.80
48575;DHT22;34352;51.084;3.712;2023-10-08T21:53:52;16.70;59.20
48575;DHT22;34352;51.084;3.712;2023-10-08T21:56:34;16.90;55.30
48575;DHT22;34352;51.084;3.712;2023-10-08T21:59:01;16.90;54.40
48575;DHT22;34352;51.084;3.712;2023-10-08T22:01:27;17.00;55.90
48575;DHT22;34352;51.084;3.712;2023-10-08T22:03:53;17.00;57.70
48575;DHT22;34352;51.084;3.712;2023-10-08T22:06:54;17.00;59.00
48575;DHT22;34352;51.084;3.712;2023-10-08T22:25:53;17.20;37.90
48575;DHT22;34352;51.084;3.712;2023-10-08T22:28:29;17.20;37.70
48575;DHT22;34352;51.084;3.712;2023-10-08T22:31:17;17.20;33.60
48575;DHT22;34352;51.084;3.712;2023-10-08T22:34:14;17.20;35.40
48575;DHT22;34352;51.084;3.712;2023-10-08T22:36:43;17.00;37.70
48575;DHT22;34352;51.084;3.712;2023-10-08T22:39:32;17.10;35.40
48575;DHT22;34352;51.084;3.712;2023-10-08T22:42:01;17.10;33.80
48575;DHT22;34352;51.084;3.712;2023-10-08T22:44:30;17.10;34.70
48575;DHT22;34352;51.084;3.712;2023-10-08T22:46:58;17.10;33.00
48575;DHT22;34352;51.084;3.712;2023-10-08T22:56:33;17.00;31.30
48575;DHT22;34352;51.084;3.712;2023-10-08T22:59:02;16.90;34.40
48575;DHT22;34352;51.084;3.712;2023-10-08T23:05:56;16.80;38.80
48575;DHT22;34352;51.084;3.712;2023-10-08T23:08:33;16.80;34.30
48575;DHT22;34352;51.084;3.712;2023-10-08T23:10:58;16.80;30.90
48575;DHT22;34352;51.084;3.712;2023-10-08T23:13:27;16.70;34.50
48575;DHT22;34352;51.084;3.712;2023-10-08T23:19:38;16.50;40.30
48575;DHT22;34352;51.084;3.712;2023-10-08T23:25:35;16.50;39.40
48575;DHT22;34352;51.084;3.712;2023-10-08T23:28:18;16.50;35.70
48575;DHT22;34352;51.084;3.712;2023-10-08T23:30:49;16.60;32.40
48575;DHT22;34352;51.084;3.712;2023-10-08T23:33:19;16.70;30.70
48575;DHT22;34352;51.084;3.712;2023-10-08T23:36:02;16.60;29.90
48575;DHT22;34352;51.084;3.712;2023-10-08T23:38:31;16.70;27.80
48575;DHT22;34352;51.084;3.712;2023-10-08T23:41:00;16.70;25.00
48575;DHT22;34352;51.084;3.712;2023-10-08T23:46:31;16.80;19.20
48575;DHT22;34352;51.084;3.712;2023-10-08T23:52:19;16.70;23.60
